sensor_id;sensor_type;location;lat;lon;timestamp;P1;durP1;ratioP1;P2;durP2;ratioP2
43606;SDS011;29197;44.788;10.366;2023-07-09T00:02:14;7.00;;;3.35;;
43606;SDS011;29197;44.788;10.366;2023-07-09T00:05:02;4.90;;;3.35;;
43606;SDS011;29197;44.788;10.366;2023-07-09T00:07:51;5.90;;;4.63;;
43606;SDS011;29197;44.788;10.366;2023-07-09T00:10:40;6.22;;;4.35;;
43606;SDS011;29197;44.788;10.366;2023-07-09T00:13:29;6.90;;;4.47;;
43606;SDS011;29197;44.788;10.366;2023-07-09T00:16:18;8.90;;;4.75;;
43606;SDS011;29197;44.788;10.366;2023-07-09T00:19:13;5.13;;;3.90;;
43606;SDS011;29197;44.788;10.366;2023-07-09T00:22:07;8.32;;;4.40;;
43606;SDS011;29197;44.788;10.366;2023-07-09T00:25:03;7.60;;;5.30;;
43606;SDS011;29197;44.788;10.366;2023-07-09T00:27:52;10.15;;;4.75;;
43606;SDS011;29197;44.788;10.366;2023-07-09T00:30:40;5.90;;;4.18;;
43606;SDS011;29197;44.788;10.366;2023-07-09T00:33:29;7.80;;;4.28;;
43606;SDS011;29197;44.788;10.366;2023-07-09T00:36:20;7.97;;;4.50;;
43606;SDS011;29197;44.788;10.366;2023-07-09T00:39:14;5.15;;;3.25;;
43606;SDS011;29197;44.788;10.366;2023-07-09T00:42:05;7.03;;;4.43;;
43606;SDS011;29197;44.788;10.366;2023-07-09T00:44:56;7.82;;;5.25;;
43606;SDS011;29197;44.788;10.366;2023-07-09T00:47:44;8.45;;;4.65;;
43606;SDS011;29197;44.788;10.366;2023-07-09T00:50:38;8.23;;;5.32;;
43606;SDS011;29197;44.788;10.366;2023-07-09T00:53:34;7.68;;;4.50;;
43606;SDS011;29197;44.788;10.366;2023-07-09T00:56:24;5.72;;;4.35;;
43606;SDS011;29197;44.788;10.366;2023-07-09T00:59:15;11.95;;;5.20;;
43606;SDS011;29197;44.788;10.366;2023-07-09T01:02:08;7.45;;;4.28;;
43606;SDS011;29197;44.788;10.366;2023-07-09T01:04:57;8.40;;;5.63;;
43606;SDS011;29197;44.788;10.366;2023-07-09T01:07:48;9.70;;;4.53;;
43606;SDS011;29197;44.788;10.366;2023-07-09T01:10:39;9.98;;;5.30;;
43606;SDS011;29197;44.788;10.366;2023-07-09T01:13:28;12.40;;;5.82;;
43606;SDS011;29197;44.788;10.366;2023-07-09T01:16:19;6.63;;;4.68;;
43606;SDS011;29197;44.788;10.366;2023-07-09T01:19:10;8.63;;;4.25;;
43606;SDS011;29197;44.788;10.366;2023-07-09T01:22:05;5.28;;;4.00;;
43606;SDS011;29197;44.788;10.366;2023-07-09T01:24:55;6.93;;;4.40;;
43606;SDS011;29197;44.788;10.366;2023-07-09T01:27:49;8.00;;;5.07;;
43606;SDS011;29197;44.788;10.366;2023-07-09T01:30:39;7.68;;;4.68;;
43606;SDS011;29197;44.788;10.366;2023-07-09T01:33:28;4.57;;;3.63;;
43606;SDS011;29197;44.788;10.366;2023-07-09T01:36:20;8.15;;;5.18;;
43606;SDS011;29197;44.788;10.366;2023-07-09T01:39:11;6.93;;;4.47;;
43606;SDS011;29197;44.788;10.366;2023-07-09T01:41:59;6.82;;;4.60;;
43606;SDS011;29197;44.788;10.366;2023-07-09T01:44:48;6.97;;;4.40;;
43606;SDS011;29197;44.788;10.366;2023-07-09T01:47:38;8.93;;;4.80;;
43606;SDS011;29197;44.788;10.366;2023-07-09T01:50:26;6.55;;;4.82;;
43606;SDS011;29197;44.788;10.366;2023-07-09T01:53:15;5.32;;;3.70;;
43606;SDS011;29197;44.788;10.366;2023-07-09T01:56:06;7.75;;;4.93;;
43606;SDS011;29197;44.788;10.366;2023-07-09T01:58:55;7.80;;;5.22;;
43606;SDS011;29197;44.788;10.366;2023-07-09T02:01:47;6.32;;;4.15;;
43606;SDS011;29197;44.788;10.366;2023-07-09T02:04:36;10.02;;;5.53;;
43606;SDS011;29197;44.788;10.366;2023-07-09T02:07:25;6.18;;;4.22;;
43606;SDS011;29197;44.788;10.366;2023-07-09T02:10:14;5.65;;;4.20;;
43606;SDS011;29197;44.788;10.366;2023-07-09T02:13:05;6.50;;;4.82;;
43606;SDS011;29197;44.788;10.366;2023-07-09T02:15:53;7.13;;;4.97;;
43606;SDS011;29197;44.788;10.366;2023-07-09T02:18:42;5.18;;;3.97;;
43606;SDS011;29197;44.788;10.366;2023-07-09T02:21:31;7.82;;;5.10;;
43606;SDS011;29197;44.788;10.366;2023-07-09T02:24:19;7.75;;;4.90;;
43606;SDS011;29197;44.788;10.366;2023-07-09T02:27:12;5.97;;;4.30;;
43606;SDS011;29197;44.788;10.366;2023-07-09T02:30:05;7.82;;;4.93;;
43606;SDS011;29197;44.788;10.366;2023-07-09T02:32:54;7.15;;;5.00;;
43606;SDS011;29197;44.788;10.366;2023-07-09T02:35:43;7.35;;;4.85;;
43606;SDS011;29197;44.788;10.366;2023-07-09T02:38:32;6.80;;;4.68;;
43606;SDS011;29197;44.788;10.366;2023-07-09T02:41:20;7.00;;;4.38;;
43606;SDS011;29197;44.788;10.366;2023-07-09T02:44:09;7.35;;;5.00;;
43606;SDS011;29197;44.788;10.366;2023-07-09T02:46:59;7.93;;;4.80;;
43606;SDS011;29197;44.788;10.366;2023-07-09T02:49:47;9.98;;;5.43;;
43606;SDS011;29197;44.788;10.366;2023-07-09T02:52:36;6.70;;;4.53;;
43606;SDS011;29197;44.788;10.366;2023-07-09T02:55:25;6.50;;;5.35;;
43606;SDS011;29197;44.788;10.366;2023-07-09T02:58:13;8.02;;;5.10;;
43606;SDS011;29197;44.788;10.366;2023-07-09T03:01:03;7.85;;;5.32;;
43606;SDS011;29197;44.788;10.366;2023-07-09T03:03:53;6.20;;;4.30;;
43606;SDS011;29197;44.788;10.366;2023-07-09T03:06:42;6.93;;;4.93;;
43606;SDS011;29197;44.788;10.366;2023-07-09T03:09:31;5.88;;;4.50;;
43606;SDS011;29197;44.788;10.366;2023-07-09T03:12:20;7.53;;;5.18;;
43606;SDS011;29197;44.788;10.366;2023-07-09T03:15:09;10.52;;;5.80;;
43606;SDS011;29197;44.788;10.366;2023-07-09T03:17:59;7.75;;;5.35;;
43606;SDS011;29197;44.788;10.366;2023-07-09T03:20:49;6.05;;;4.32;;
43606;SDS011;29197;44.788;10.366;2023-07-09T03:23:38;10.38;;;5.32;;
43606;SDS011;29197;44.788;10.366;2023-07-09T03:26:26;8.15;;;5.13;;
43606;SDS011;29197;44.788;10.366;2023-07-09T03:29:15;7.68;;;4.30;;
43606;SDS011;29197;44.788;10.366;2023-07-09T03:32:04;10.15;;;5.22;;
43606;SDS011;29197;44.788;10.366;2023-07-09T03:34:53;5.65;;;3.90;;
43606;SDS011;29197;44.788;10.366;2023-07-09T03:37:43;8.48;;;4.85;;
43606;SDS011;29197;44.788;10.366;2023-07-09T03:40:32;6.65;;;4.55;;
43606;SDS011;29197;44.788;10.366;2023-07-09T03:43:21;8.70;;;4.72;;
43606;SDS011;29197;44.788;10.366;2023-07-09T03:46:10;7.53;;;4.53;;
43606;SDS011;29197;44.788;10.366;2023-07-09T03:48:59;5.78;;;4.00;;
43606;SDS011;29197;44.788;10.366;2023-07-09T03:51:47;8.30;;;4.00;;
43606;SDS011;29197;44.788;10.366;2023-07-09T03:54:37;6.18;;;3.60;;
43606;SDS011;29197;44.788;10.366;2023-07-09T03:57:26;6.53;;;4.70;;
43606;SDS011;29197;44.788;10.366;2023-07-09T04:00:15;7.25;;;4.43;;
43606;SDS011;29197;44.788;10.366;2023-07-09T04:03:04;5.50;;;4.07;;
43606;SDS011;29197;44.788;10.366;2023-07-09T04:05:55;6.97;;;3.33;;
43606;SDS011;29197;44.788;10.366;2023-07-09T04:08:43;5.47;;;3.80;;
43606;SDS011;29197;44.788;10.366;2023-07-09T04:11:33;5.93;;;4.28;;
43606;SDS011;29197;44.788;10.366;2023-07-09T04:14:22;4.97;;;4.07;;
43606;SDS011;29197;44.788;10.366;2023-07-09T04:17:11;6.18;;;4.45;;
43606;SDS011;29197;44.788;10.366;2023-07-09T04:19:59;5.95;;;4.03;;
43606;SDS011;29197;44.788;10.366;2023-07-09T04:22:51;6.18;;;4.45;;
43606;SDS011;29197;44.788;10.366;2023-07-09T04:25:41;7.60;;;4.60;;
43606;SDS011;29197;44.788;10.366;2023-07-09T04:28:31;6.03;;;4.60;;
43606;SDS011;29197;44.788;10.366;2023-07-09T04:31:20;5.57;;;4.57;;
43606;SDS011;29197;44.788;10.366;2023-07-09T04:34:08;8.07;;;4.30;;
43606;SDS011;29197;44.788;10.366;2023-07-09T04:36:57;8.82;;;4.13;;
43606;SDS011;29197;44.788;10.366;2023-07-09T04:39:45;10.55;;;4.32;;
43606;SDS011;29197;44.788;10.366;2023-07-09T04:42:35;6.85;;;4.28;;
43606;SDS011;29197;44.788;10.366;2023-07-09T04:45:25;6.88;;;4.72;;
43606;SDS011;29197;44.788;10.366;2023-07-09T04:48:14;12.45;;;5.03;;
43606;SDS011;29197;44.788;10.366;2023-07-09T04:51:02;8.15;;;4.85;;
43606;SDS011;29197;44.788;10.366;2023-07-09T04:53:51;7.70;;;4.32;;
43606;SDS011;29197;44.788;10.366;2023-07-09T04:56:40;8.05;;;4.82;;
43606;SDS011;29197;44.788;10.366;2023-07-09T04:59:31;4.82;;;4.00;;
43606;SDS011;29197;44.788;10.366;2023-07-09T05:02:21;7.63;;;4.63;;
43606;SDS011;29197;44.788;10.366;2023-07-09T05:05:10;7.78;;;4.75;;
43606;SDS011;29197;44.788;10.366;2023-07-09T05:07:59;6.60;;;4.25;;
43606;SDS011;29197;44.788;10.366;2023-07-09T05:10:49;7.72;;;4.45;;
43606;SDS011;29197;44.788;10.366;2023-07-09T05:13:39;6.78;;;4.47;;
43606;SDS011;29197;44.788;10.366;2023-07-09T05:16:28;6.43;;;4.28;;
43606;SDS011;29197;44.788;10.366;2023-07-09T05:19:19;5.95;;;3.97;;
43606;SDS011;29197;44.788;10.366;2023-07-09T05:22:07;8.40;;;4.53;;
43606;SDS011;29197;44.788;10.366;2023-07-09T05:24:56;6.50;;;4.20;;
43606;SDS011;29197;44.788;10.366;2023-07-09T05:27:44;5.55;;;3.72;;
43606;SDS011;29197;44.788;10.366;2023-07-09T05:30:33;5.43;;;3.90;;
43606;SDS011;29197;44.788;10.366;2023-07-09T05:33:21;6.05;;;4.07;;
43606;SDS011;29197;44.788;10.366;2023-07-09T05:36:11;5.35;;;4.15;;
43606;SDS011;29197;44.788;10.366;2023-07-09T05:39:02;6.72;;;4.47;;
43606;SDS011;29197;44.788;10.366;2023-07-09T05:41:51;6.22;;;4.57;;
43606;SDS011;29197;44.788;10.366;2023-07-09T05:44:39;4.70;;;3.75;;
43606;SDS011;29197;44.788;10.366;2023-07-09T05:47:28;7.30;;;4.22;;
43606;SDS011;29197;44.788;10.366;2023-07-09T05:50:16;7.15;;;4.70;;
43606;SDS011;29197;44.788;10.366;2023-07-09T05:53:06;5.50;;;4.18;;
43606;SDS011;29197;44.788;10.366;2023-07-09T05:55:55;6.85;;;4.18;;
43606;SDS011;29197;44.788;10.366;2023-07-09T05:58:44;5.93;;;4.57;;
43606;SDS011;29197;44.788;10.366;2023-07-09T06:01:33;7.95;;;4.15;;
43606;SDS011;29197;44.788;10.366;2023-07-09T06:04:21;6.72;;;4.70;;
43606;SDS011;29197;44.788;10.366;2023-07-09T06:07:13;9.05;;;4.18;;
43606;SDS011;29197;44.788;10.366;2023-07-09T06:10:03;8.32;;;4.93;;
43606;SDS011;29197;44.788;10.366;2023-07-09T06:12:53;4.57;;;3.72;;
43606;SDS011;29197;44.788;10.366;2023-07-09T06:15:41;7.82;;;4.03;;
43606;SDS011;29197;44.788;10.366;2023-07-09T06:18:30;7.07;;;4.45;;
43606;SDS011;29197;44.788;10.366;2023-07-09T06:21:19;5.95;;;3.97;;
43606;SDS011;29197;44.788;10.366;2023-07-09T06:24:08;6.28;;;4.20;;
43606;SDS011;29197;44.788;10.366;2023-07-09T06:26:58;5.70;;;3.90;;
43606;SDS011;29197;44.788;10.366;2023-07-09T06:29:47;5.90;;;4.07;;
43606;SDS011;29197;44.788;10.366;2023-07-09T06:32:35;6.70;;;4.45;;
43606;SDS011;29197;44.788;10.366;2023-07-09T06:35:24;5.88;;;4.25;;
43606;SDS011;29197;44.788;10.366;2023-07-09T06:38:13;7.07;;;4.57;;
43606;SDS011;29197;44.788;10.366;2023-07-09T06:41:01;6.15;;;3.80;;
43606;SDS011;29197;44.788;10.366;2023-07-09T06:43:52;6.20;;;4.22;;
43606;SDS011;29197;44.788;10.366;2023-07-09T06:46:41;5.10;;;3.90;;
43606;SDS011;29197;44.788;10.366;2023-07-09T06:49:31;6.30;;;3.90;;
43606;SDS011;29197;44.788;10.366;2023-07-09T06:52:20;6.78;;;4.15;;
43606;SDS011;29197;44.788;10.366;2023-07-09T06:55:09;6.93;;;3.67;;
43606;SDS011;29197;44.788;10.366;2023-07-09T06:57:57;5.28;;;3.35;;
43606;SDS011;29197;44.788;10.366;2023-07-09T07:00:48;6.65;;;4.20;;
43606;SDS011;29197;44.788;10.366;2023-07-09T07:03:37;6.43;;;3.58;;
43606;SDS011;29197;44.788;10.366;2023-07-09T07:06:26;6.55;;;3.90;;
43606;SDS011;29197;44.788;10.366;2023-07-09T07:09:14;6.50;;;4.13;;
43606;SDS011;29197;44.788;10.366;2023-07-09T07:12:03;5.35;;;4.18;;
43606;SDS011;29197;44.788;10.366;2023-07-09T07:14:53;5.53;;;3.80;;
43606;SDS011;29197;44.788;10.366;2023-07-09T07:17:43;7.82;;;4.15;;
43606;SDS011;29197;44.788;10.366;2023-07-09T07:20:33;7.47;;;4.60;;
43606;SDS011;29197;44.788;10.366;2023-07-09T07:23:22;7.65;;;4.40;;
43606;SDS011;29197;44.788;10.366;2023-07-09T07:26:10;10.27;;;5.00;;
43606;SDS011;29197;44.788;10.366;2023-07-09T07:28:59;9.38;;;5.50;;
43606;SDS011;29197;44.788;10.366;2023-07-09T07:31:48;8.88;;;5.65;;
43606;SDS011;29197;44.788;10.366;2023-07-09T07:34:38;7.80;;;5.15;;
43606;SDS011;29197;44.788;10.366;2023-07-09T07:37:26;9.88;;;4.82;;
43606;SDS011;29197;44.788;10.366;2023-07-09T07:40:15;9.07;;;4.70;;
43606;SDS011;29197;44.788;10.366;2023-07-09T07:43:04;9.55;;;5.30;;
43606;SDS011;29197;44.788;10.366;2023-07-09T07:45:52;8.52;;;5.03;;
43606;SDS011;29197;44.788;10.366;2023-07-09T07:48:41;7.78;;;5.10;;
43606;SDS011;29197;44.788;10.366;2023-07-09T07:51:31;8.50;;;5.82;;
43606;SDS011;29197;44.788;10.366;2023-07-09T07:54:20;10.52;;;5.75;;
43606;SDS011;29197;44.788;10.366;2023-07-09T07:57:09;11.20;;;5.78;;
43606;SDS011;29197;44.788;10.366;2023-07-09T07:59:58;9.75;;;5.88;;
43606;SDS011;29197;44.788;10.366;2023-07-09T08:02:49;12.57;;;7.75;;
43606;SDS011;29197;44.788;10.366;2023-07-09T08:05:38;9.38;;;5.32;;
43606;SDS011;29197;44.788;10.366;2023-07-09T08:08:28;8.30;;;5.60;;
43606;SDS011;29197;44.788;10.366;2023-07-09T08:11:17;6.90;;;4.75;;
43606;SDS011;29197;44.788;10.366;2023-07-09T08:14:05;8.40;;;5.60;;
43606;SDS011;29197;44.788;10.366;2023-07-09T08:16:54;9.35;;;5.70;;
43606;SDS011;29197;44.788;10.366;2023-07-09T08:19:46;10.57;;;5.68;;
43606;SDS011;29197;44.788;10.366;2023-07-09T08:22:35;9.45;;;4.63;;
43606;SDS011;29197;44.788;10.366;2023-07-09T08:25:28;8.18;;;5.47;;
43606;SDS011;29197;44.788;10.366;2023-07-09T08:28:16;9.65;;;4.57;;
43606;SDS011;29197;44.788;10.366;2023-07-09T08:31:05;8.30;;;4.50;;
43606;SDS011;29197;44.788;10.366;2023-07-09T08:33:54;7.47;;;4.95;;
43606;SDS011;29197;44.788;10.366;2023-07-09T08:36:42;9.98;;;5.53;;
43606;SDS011;29197;44.788;10.366;2023-07-09T08:39:31;7.55;;;4.55;;
43606;SDS011;29197;44.788;10.366;2023-07-09T08:42:24;6.68;;;4.88;;
43606;SDS011;29197;44.788;10.366;2023-07-09T08:45:21;7.00;;;4.75;;
43606;SDS011;29197;44.788;10.366;2023-07-09T08:48:19;9.70;;;5.00;;
43606;SDS011;29197;44.788;10.366;2023-07-09T08:51:15;7.88;;;5.20;;
43606;SDS011;29197;44.788;10.366;2023-07-09T08:54:10;7.38;;;4.80;;
43606;SDS011;29197;44.788;10.366;2023-07-09T08:57:04;6.93;;;4.97;;
43606;SDS011;29197;44.788;10.366;2023-07-09T09:00:07;15.95;;;6.40;;
43606;SDS011;29197;44.788;10.366;2023-07-09T09:03:04;11.18;;;5.55;;
43606;SDS011;29197;44.788;10.366;2023-07-09T09:05:58;7.32;;;5.47;;
43606;SDS011;29197;44.788;10.366;2023-07-09T09:09:02;9.38;;;4.90;;
43606;SDS011;29197;44.788;10.366;2023-07-09T09:11:57;12.18;;;5.95;;
43606;SDS011;29197;44.788;10.366;2023-07-09T09:14:52;7.63;;;5.28;;
43606;SDS011;29197;44.788;10.366;2023-07-09T09:17:46;6.95;;;5.18;;
43606;SDS011;29197;44.788;10.366;2023-07-09T09:20:40;8.35;;;4.78;;
43606;SDS011;29197;44.788;10.366;2023-07-09T09:23:30;9.10;;;5.60;;
43606;SDS011;29197;44.788;10.366;2023-07-09T09:26:26;7.78;;;4.85;;
43606;SDS011;29197;44.788;10.366;2023-07-09T09:29:17;5.97;;;4.60;;
43606;SDS011;29197;44.788;10.366;2023-07-09T09:32:13;9.32;;;5.00;;
43606;SDS011;29197;44.788;10.366;2023-07-09T09:35:15;8.27;;;4.43;;
43606;SDS011;29197;44.788;10.366;2023-07-09T09:38:09;9.60;;;5.05;;
43606;SDS011;29197;44.788;10.366;2023-07-09T09:40:59;7.35;;;4.95;;
43606;SDS011;29197;44.788;10.366;2023-07-09T09:43:51;7.22;;;4.90;;
43606;SDS011;29197;44.788;10.366;2023-07-09T09:46:41;8.20;;;5.10;;
43606;SDS011;29197;44.788;10.366;2023-07-09T09:49:30;6.50;;;4.25;;
43606;SDS011;29197;44.788;10.366;2023-07-09T09:52:29;6.93;;;4.28;;
43606;SDS011;29197;44.788;10.366;2023-07-09T09:55:22;6.28;;;4.43;;
43606;SDS011;29197;44.788;10.366;2023-07-09T09:58:13;8.93;;;4.47;;
43606;SDS011;29197;44.788;10.366;2023-07-09T10:01:03;5.50;;;4.30;;
43606;SDS011;29197;44.788;10.366;2023-07-09T10:03:55;7.22;;;4.10;;
43606;SDS011;29197;44.788;10.366;2023-07-09T10:06:46;5.50;;;4.40;;
43606;SDS011;29197;44.788;10.366;2023-07-09T10:09:43;6.97;;;4.32;;
43606;SDS011;29197;44.788;10.366;2023-07-09T10:12:36;5.32;;;4.13;;
43606;SDS011;29197;44.788;10.366;2023-07-09T10:15:34;5.82;;;4.07;;
43606;SDS011;29197;44.788;10.366;2023-07-09T10:18:32;6.07;;;3.65;;
43606;SDS011;29197;44.788;10.366;2023-07-09T10:21:31;8.05;;;4.10;;
43606;SDS011;29197;44.788;10.366;2023-07-09T10:24:33;8.45;;;4.20;;
43606;SDS011;29197;44.788;10.366;2023-07-09T10:27:34;9.13;;;4.25;;
43606;SDS011;29197;44.788;10.366;2023-07-09T10:30:32;5.80;;;4.03;;
43606;SDS011;29197;44.788;10.366;2023-07-09T10:33:32;5.28;;;3.88;;
43606;SDS011;29197;44.788;10.366;2023-07-09T10:36:39;5.20;;;3.53;;
43606;SDS011;29197;44.788;10.366;2023-07-09T10:39:36;7.60;;;4.07;;
43606;SDS011;29197;44.788;10.366;2023-07-09T10:42:30;5.68;;;3.72;;
43606;SDS011;29197;44.788;10.366;2023-07-09T10:45:23;5.80;;;3.83;;
43606;SDS011;29197;44.788;10.366;2023-07-09T10:48:18;6.88;;;4.05;;
43606;SDS011;29197;44.788;10.366;2023-07-09T10:51:16;7.40;;;4.18;;
43606;SDS011;29197;44.788;10.366;2023-07-09T10:54:11;5.63;;;3.83;;
43606;SDS011;29197;44.788;10.366;2023-07-09T10:57:06;7.45;;;4.43;;
43606;SDS011;29197;44.788;10.366;2023-07-09T10:59:58;6.03;;;4.35;;
43606;SDS011;29197;44.788;10.366;2023-07-09T11:02:50;6.63;;;4.32;;
43606;SDS011;29197;44.788;10.366;2023-07-09T11:05:45;5.80;;;4.00;;
43606;SDS011;29197;44.788;10.366;2023-07-09T11:08:34;8.90;;;4.13;;
43606;SDS011;29197;44.788;10.366;2023-07-09T11:11:28;7.65;;;4.32;;
43606;SDS011;29197;44.788;10.366;2023-07-09T11:14:25;8.45;;;4.60;;
43606;SDS011;29197;44.788;10.366;2023-07-09T11:17:21;6.00;;;4.07;;
43606;SDS011;29197;44.788;10.366;2023-07-09T11:20:16;10.05;;;5.32;;
43606;SDS011;29197;44.788;10.366;2023-07-09T11:23:17;9.88;;;5.28;;
43606;SDS011;29197;44.788;10.366;2023-07-09T11:26:11;6.18;;;3.92;;
43606;SDS011;29197;44.788;10.366;2023-07-09T11:29:13;6.38;;;4.35;;
43606;SDS011;29197;44.788;10.366;2023-07-09T11:32:07;6.13;;;4.47;;
43606;SDS011;29197;44.788;10.366;2023-07-09T11:35:07;8.02;;;4.22;;
43606;SDS011;29197;44.788;10.366;2023-07-09T11:37:56;7.57;;;4.38;;
43606;SDS011;29197;44.788;10.366;2023-07-09T11:40:56;7.85;;;4.07;;
43606;SDS011;29197;44.788;10.366;2023-07-09T11:43:47;4.88;;;3.72;;
43606;SDS011;29197;44.788;10.366;2023-07-09T11:46:36;8.55;;;3.70;;
43606;SDS011;29197;44.788;10.366;2023-07-09T11:49:36;6.47;;;3.95;;
43606;SDS011;29197;44.788;10.366;2023-07-09T11:52:36;7.50;;;4.47;;
43606;SDS011;29197;44.788;10.366;2023-07-09T11:55:31;5.47;;;3.72;;
43606;SDS011;29197;44.788;10.366;2023-07-09T11:58:26;4.70;;;3.53;;
43606;SDS011;29197;44.788;10.366;2023-07-09T12:01:16;5.95;;;4.15;;
43606;SDS011;29197;44.788;10.366;2023-07-09T12:04:07;10.15;;;3.97;;
43606;SDS011;29197;44.788;10.366;2023-07-09T12:07:00;6.15;;;4.22;;
43606;SDS011;29197;44.788;10.366;2023-07-09T12:09:53;5.80;;;4.25;;
43606;SDS011;29197;44.788;10.366;2023-07-09T12:12:42;6.85;;;3.85;;
43606;SDS011;29197;44.788;10.366;2023-07-09T12:15:31;6.18;;;4.05;;
43606;SDS011;29197;44.788;10.366;2023-07-09T12:18:20;7.85;;;4.07;;
43606;SDS011;29197;44.788;10.366;2023-07-09T12:21:09;5.13;;;3.60;;
43606;SDS011;29197;44.788;10.366;2023-07-09T12:23:58;7.93;;;4.95;;
43606;SDS011;29197;44.788;10.366;2023-07-09T12:26:51;9.05;;;4.05;;
43606;SDS011;29197;44.788;10.366;2023-07-09T12:29:40;6.75;;;4.15;;
43606;SDS011;29197;44.788;10.366;2023-07-09T12:32:28;8.77;;;4.28;;
43606;SDS011;29197;44.788;10.366;2023-07-09T12:35:17;5.72;;;3.92;;
43606;SDS011;29197;44.788;10.366;2023-07-09T12:38:11;6.05;;;4.50;;
43606;SDS011;29197;44.788;10.366;2023-07-09T12:41:06;6.10;;;4.18;;
43606;SDS011;29197;44.788;10.366;2023-07-09T12:44:09;7.38;;;4.32;;
43606;SDS011;29197;44.788;10.366;2023-07-09T12:47:04;4.18;;;3.67;;
43606;SDS011;29197;44.788;10.366;2023-07-09T12:49:59;4.63;;;3.83;;
43606;SDS011;29197;44.788;10.366;2023-07-09T12:53:11;5.75;;;3.88;;
43606;SDS011;29197;44.788;10.366;2023-07-09T12:56:02;6.15;;;4.25;;
43606;SDS011;29197;44.788;10.366;2023-07-09T12:58:58;4.55;;;3.47;;
43606;SDS011;29197;44.788;10.366;2023-07-09T13:01:55;7.75;;;3.92;;
43606;SDS011;29197;44.788;10.366;2023-07-09T13:04:44;4.60;;;3.75;;
43606;SDS011;29197;44.788;10.366;2023-07-09T13:07:35;5.90;;;4.38;;
43606;SDS011;29197;44.788;10.366;2023-07-09T13:10:26;6.65;;;3.90;;
43606;SDS011;29197;44.788;10.366;2023-07-09T13:13:17;5.47;;;3.55;;
43606;SDS011;29197;44.788;10.366;2023-07-09T13:16:07;4.85;;;3.58;;
43606;SDS011;29197;44.788;10.366;2023-07-09T13:18:57;4.25;;;3.35;;
43606;SDS011;29197;44.788;10.366;2023-07-09T13:21:46;6.43;;;3.53;;
43606;SDS011;29197;44.788;10.366;2023-07-09T13:24:34;5.82;;;3.42;;
43606;SDS011;29197;44.788;10.366;2023-07-09T13:27:23;6.47;;;3.78;;
43606;SDS011;29197;44.788;10.366;2023-07-09T13:30:12;4.63;;;3.63;;
43606;SDS011;29197;44.788;10.366;2023-07-09T13:33:01;6.15;;;3.85;;
43606;SDS011;29197;44.788;10.366;2023-07-09T13:35:56;6.25;;;3.60;;
43606;SDS011;29197;44.788;10.366;2023-07-09T13:38:45;7.90;;;3.55;;
43606;SDS011;29197;44.788;10.366;2023-07-09T13:41:33;4.57;;;3.60;;
43606;SDS011;29197;44.788;10.366;2023-07-09T13:44:24;5.32;;;3.55;;
43606;SDS011;29197;44.788;10.366;2023-07-09T13:47:15;7.32;;;3.58;;
43606;SDS011;29197;44.788;10.366;2023-07-09T13:50:06;4.72;;;3.50;;
43606;SDS011;29197;44.788;10.366;2023-07-09T13:52:56;5.70;;;3.70;;
43606;SDS011;29197;44.788;10.366;2023-07-09T13:55:45;3.92;;;3.50;;
43606;SDS011;29197;44.788;10.366;2023-07-09T13:58:36;5.47;;;3.88;;
43606;SDS011;29197;44.788;10.366;2023-07-09T14:01:24;7.75;;;4.07;;
43606;SDS011;29197;44.788;10.366;2023-07-09T14:04:13;6.57;;;4.00;;
43606;SDS011;29197;44.788;10.366;2023-07-09T14:07:04;9.40;;;4.10;;
43606;SDS011;29197;44.788;10.366;2023-07-09T14:09:57;4.05;;;3.35;;
43606;SDS011;29197;44.788;10.366;2023-07-09T14:12:46;5.00;;;4.10;;
43606;SDS011;29197;44.788;10.366;2023-07-09T14:15:35;6.50;;;3.08;;
43606;SDS011;29197;44.788;10.366;2023-07-09T14:18:25;4.20;;;3.55;;
43606;SDS011;29197;44.788;10.366;2023-07-09T14:21:14;4.57;;;3.42;;
43606;SDS011;29197;44.788;10.366;2023-07-09T14:24:08;5.53;;;3.80;;
43606;SDS011;29197;44.788;10.366;2023-07-09T14:27:08;5.88;;;3.67;;
43606;SDS011;29197;44.788;10.366;2023-07-09T14:29:57;5.82;;;3.65;;
43606;SDS011;29197;44.788;10.366;2023-07-09T14:32:47;4.30;;;3.05;;
43606;SDS011;29197;44.788;10.366;2023-07-09T14:35:37;5.60;;;3.47;;
43606;SDS011;29197;44.788;10.366;2023-07-09T14:38:25;4.30;;;3.42;;
43606;SDS011;29197;44.788;10.366;2023-07-09T14:41:18;5.70;;;3.85;;
43606;SDS011;29197;44.788;10.366;2023-07-09T14:44:18;4.75;;;3.75;;
43606;SDS011;29197;44.788;10.366;2023-07-09T14:47:11;4.75;;;3.55;;
43606;SDS011;29197;44.788;10.366;2023-07-09T14:50:03;6.10;;;4.00;;
43606;SDS011;29197;44.788;10.366;2023-07-09T14:52:52;5.35;;;3.90;;
43606;SDS011;29197;44.788;10.366;2023-07-09T14:55:41;5.32;;;3.80;;
43606;SDS011;29197;44.788;10.366;2023-07-09T14:58:31;6.35;;;3.70;;
43606;SDS011;29197;44.788;10.366;2023-07-09T15:01:21;4.80;;;3.65;;
43606;SDS011;29197;44.788;10.366;2023-07-09T15:04:27;5.53;;;3.40;;
43606;SDS011;29197;44.788;10.366;2023-07-09T15:07:18;7.03;;;3.97;;
43606;SDS011;29197;44.788;10.366;2023-07-09T15:10:08;4.55;;;3.40;;
43606;SDS011;29197;44.788;10.366;2023-07-09T15:12:59;4.65;;;3.47;;
43606;SDS011;29197;44.788;10.366;2023-07-09T15:15:49;4.47;;;3.55;;
43606;SDS011;29197;44.788;10.366;2023-07-09T15:18:39;7.38;;;4.00;;
43606;SDS011;29197;44.788;10.366;2023-07-09T15:21:27;5.18;;;3.42;;
43606;SDS011;29197;44.788;10.366;2023-07-09T15:24:19;5.40;;;3.85;;
43606;SDS011;29197;44.788;10.366;2023-07-09T15:27:10;6.90;;;3.55;;
43606;SDS011;29197;44.788;10.366;2023-07-09T15:29:58;7.00;;;3.80;;
43606;SDS011;29197;44.788;10.366;2023-07-09T15:32:47;5.75;;;3.40;;
43606;SDS011;29197;44.788;10.366;2023-07-09T15:35:38;4.40;;;3.53;;
43606;SDS011;29197;44.788;10.366;2023-07-09T15:38:28;5.82;;;4.30;;
43606;SDS011;29197;44.788;10.366;2023-07-09T15:41:18;7.82;;;3.63;;
43606;SDS011;29197;44.788;10.366;2023-07-09T15:44:08;7.68;;;4.10;;
43606;SDS011;29197;44.788;10.366;2023-07-09T15:46:58;5.90;;;3.15;;
43606;SDS011;29197;44.788;10.366;2023-07-09T15:49:50;8.43;;;4.47;;
43606;SDS011;29197;44.788;10.366;2023-07-09T15:52:40;3.92;;;3.42;;
43606;SDS011;29197;44.788;10.366;2023-07-09T15:55:29;8.02;;;3.75;;
43606;SDS011;29197;44.788;10.366;2023-07-09T15:58:19;5.30;;;3.30;;
43606;SDS011;29197;44.788;10.366;2023-07-09T16:01:12;6.28;;;3.90;;
43606;SDS011;29197;44.788;10.366;2023-07-09T16:04:02;7.65;;;4.10;;
43606;SDS011;29197;44.788;10.366;2023-07-09T16:07:15;5.35;;;3.40;;
43606;SDS011;29197;44.788;10.366;2023-07-09T16:10:05;3.33;;;2.85;;
43606;SDS011;29197;44.788;10.366;2023-07-09T16:12:54;7.07;;;4.25;;
43606;SDS011;29197;44.788;10.366;2023-07-09T16:15:43;4.97;;;4.07;;
43606;SDS011;29197;44.788;10.366;2023-07-09T16:18:32;6.45;;;3.72;;
43606;SDS011;29197;44.788;10.366;2023-07-09T16:21:22;4.97;;;3.67;;
43606;SDS011;29197;44.788;10.366;2023-07-09T16:24:14;7.88;;;3.78;;
43606;SDS011;29197;44.788;10.366;2023-07-09T16:27:09;5.03;;;3.75;;
43606;SDS011;29197;44.788;10.366;2023-07-09T16:30:04;5.13;;;3.88;;
43606;SDS011;29197;44.788;10.366;2023-07-09T16:32:59;4.25;;;3.55;;
43606;SDS011;29197;44.788;10.366;2023-07-09T16:35:49;7.47;;;3.75;;
43606;SDS011;29197;44.788;10.366;2023-07-09T16:38:41;5.55;;;4.47;;
43606;SDS011;29197;44.788;10.366;2023-07-09T16:41:30;5.35;;;3.97;;
43606;SDS011;29197;44.788;10.366;2023-07-09T16:44:20;5.40;;;3.88;;
43606;SDS011;29197;44.788;10.366;2023-07-09T16:47:10;5.03;;;3.75;;
43606;SDS011;29197;44.788;10.366;2023-07-09T16:50:03;5.53;;;3.63;;
43606;SDS011;29197;44.788;10.366;2023-07-09T16:52:53;5.18;;;3.63;;
43606;SDS011;29197;44.788;10.366;2023-07-09T16:55:42;5.88;;;4.10;;